Mountain Home, AR

5:08 AM CST on February 07, 2016 (GMT -0600)
APRSWXNET | | Change Station
CLOSE
Current Station
Personal Weather Station
Location: Mountain Home, AR
Elevation: 915 ft
Nearby Weather Stations

Elev 915 ft 36.36 °N, 92.41 °W | Updated 24 minutes ago

Clear
Clear
26 °F
Feels Like 26 °F
N
0
Wind Variable Wind from South
Gusts 0.0 mph

Today
High -- | Low -- °F
--% Chance of Precip.
Yesterday
High -- | Low -- °F
Precip. -- in
Pressure 30.16 in
Visibility 5.0 miles
Clouds Clear
Windchill 26 °F
Dew Point 23 °F
Humidity 89%
Rainfall in
Snow Depth Not available.
7:06 AM 5:41 PM
Waning Crescent, 2% visible
METAR KBPK 071053Z AUTO 18007KT 5SM HZ CLR 02/M07 A3015 RMK AO2 SLP211 T00171067
Pressure 30.16 in
Visibility 5.0 miles
Clouds Clear
Windchill 26 °F
Dew Point 23 °F
Humidity 89%
Rainfall in
Snow Depth Not available.
7:06 AM 5:41 PM
Waning Crescent, 2% visible
METAR KBPK 071053Z AUTO 18007KT 5SM HZ CLR 02/M07 A3015 RMK AO2 SLP211 T00171067

10-Day Weather Forecast

Almanac

Astronomy

Feb. 07, 2016 Rise Set
Actual Time
Civil Twilight
Nautical Twilight
Astronomical Twilight
Moon
Length of Visible Light
Length of Day
Tomorrow will be .
, % of the Moon is Illuminated

Today's Extremes

State Highs State Lows

Community

WunderPhotos

Upload Photos

1,891,170 photos uploaded!

WunderBlog® & News

Nearby

Air Quality

  Air Quality AQ Index Pollutant
Not available.

Snow Depth

Station Depth Elevation

Earthquake Activity

City Distance Mag. Time & Date
Minimum magnitude displayed is 2.5.

Coastal Water Temperatures

Place Temperature

Stations

Nearby Weather Stations

Station Location Temp. Windchill Dew Point Humidity Wind Precip. Elev Updated Type
                   

Watches & Warnings

There are currently no watches in effect.